sensor_id;sensor_type;location;lat;lon;timestamp;pressure;altitude;pressure_sealevel;temperature;humidity
68329;BME280;55182;56.864;60.554;2022-07-29T00:01:42;98642.50;;;13.41;99.46
68329;BME280;55182;56.864;60.554;2022-07-29T00:04:08;98638.09;;;13.38;99.21
68329;BME280;55182;56.864;60.554;2022-07-29T00:06:33;98645.13;;;13.36;99.47
68329;BME280;55182;56.864;60.554;2022-07-29T00:08:59;98644.25;;;13.33;99.34
68329;BME280;55182;56.864;60.554;2022-07-29T00:11:24;98654.81;;;13.30;99.52
68329;BME280;55182;56.864;60.554;2022-07-29T00:13:49;98649.53;;;13.31;99.54
68329;BME280;55182;56.864;60.554;2022-07-29T00:16:15;98656.53;;;13.37;99.37
68329;BME280;55182;56.864;60.554;2022-07-29T00:18:40;98665.31;;;13.37;99.46
68329;BME280;55182;56.864;60.554;2022-07-29T00:21:06;98655.66;;;13.36;99.42
68329;BME280;55182;56.864;60.554;2022-07-29T00:23:31;98656.53;;;13.38;99.43
68329;BME280;55182;56.864;60.554;2022-07-29T00:25:56;98655.69;;;13.39;99.33
68329;BME280;55182;56.864;60.554;2022-07-29T00:28:22;98655.66;;;13.47;98.81
68329;BME280;55182;56.864;60.554;2022-07-29T00:30:47;98653.84;;;13.55;98.42
68329;BME280;55182;56.864;60.554;2022-07-29T00:33:13;98659.13;;;13.53;98.66
68329;BME280;55182;56.864;60.554;2022-07-29T00:35:38;98661.78;;;13.52;98.65
68329;BME280;55182;56.864;60.554;2022-07-29T00:38:03;98659.16;;;13.49;98.69
68329;BME280;55182;56.864;60.554;2022-07-29T00:40:29;98660.06;;;13.45;98.99
68329;BME280;55182;56.864;60.554;2022-07-29T00:42:54;98660.06;;;13.45;99.01
68329;BME280;55182;56.864;60.554;2022-07-29T00:45:20;98668.81;;;13.47;98.67
68329;BME280;55182;56.864;60.554;2022-07-29T00:47:45;98666.19;;;13.51;98.63
68329;BME280;55182;56.864;60.554;2022-07-29T00:50:11;98669.69;;;13.53;98.17
68329;BME280;55182;56.864;60.554;2022-07-29T00:52:38;98670.56;;;13.57;98.03
68329;BME280;55182;56.864;60.554;2022-07-29T00:55:03;98665.25;;;13.60;97.85
68329;BME280;55182;56.864;60.554;2022-07-29T00:57:29;98667.03;;;13.67;97.35
68329;BME280;55182;56.864;60.554;2022-07-29T00:59:57;98667.00;;;13.70;97.02
68329;BME280;55182;56.864;60.554;2022-07-29T01:02:23;98666.09;;;13.77;96.15
68329;BME280;55182;56.864;60.554;2022-07-29T01:04:48;98665.22;;;13.82;95.98
68329;BME280;55182;56.864;60.554;2022-07-29T01:07:14;98670.50;;;13.85;95.86
68329;BME280;55182;56.864;60.554;2022-07-29T01:09:39;98663.47;;;13.85;95.84
68329;BME280;55182;56.864;60.554;2022-07-29T01:12:06;98674.84;;;13.87;95.60
68329;BME280;55182;56.864;60.554;2022-07-29T01:14:31;98671.34;;;13.91;95.47
68329;BME280;55182;56.864;60.554;2022-07-29T01:21:57;98665.13;;;14.08;94.79
68329;BME280;55182;56.864;60.554;2022-07-29T01:24:30;98675.63;;;14.12;94.29
68329;BME280;55182;56.864;60.554;2022-07-29T01:26:59;98680.00;;;14.18;94.24
68329;BME280;55182;56.864;60.554;2022-07-29T01:29:30;98677.38;;;14.19;93.91
68329;BME280;55182;56.864;60.554;2022-07-29T01:34:35;98678.22;;;14.21;93.50
68329;BME280;55182;56.864;60.554;2022-07-29T01:39:32;98684.38;;;14.26;93.81
68329;BME280;55182;56.864;60.554;2022-07-29T01:44:31;98670.25;;;14.37;92.75
68329;BME280;55182;56.864;60.554;2022-07-29T01:46:58;98668.47;;;14.39;92.28
68329;BME280;55182;56.864;60.554;2022-07-29T01:49:29;98674.63;;;14.47;92.00
68329;BME280;55182;56.864;60.554;2022-07-29T01:52:07;98665.75;;;14.55;91.93
68329;BME280;55182;56.864;60.554;2022-07-29T01:55:09;98660.44;;;14.65;91.20
68329;BME280;55182;56.864;60.554;2022-07-29T01:57:28;98677.97;;;14.73;90.49
68329;BME280;55182;56.864;60.554;2022-07-29T01:59:54;98669.13;;;14.77;89.96
68329;BME280;55182;56.864;60.554;2022-07-29T02:02:21;98661.19;;;14.79;89.21
68329;BME280;55182;56.864;60.554;2022-07-29T02:04:47;98665.53;;;14.86;89.28
68329;BME280;55182;56.864;60.554;2022-07-29T02:07:15;98667.25;;;14.92;88.67
68329;BME280;55182;56.864;60.554;2022-07-29T02:09:41;98665.44;;;15.00;88.13
68329;BME280;55182;56.864;60.554;2022-07-29T02:12:07;98664.50;;;15.07;87.51
68329;BME280;55182;56.864;60.554;2022-07-29T02:14:36;98667.13;;;15.11;87.39
68329;BME280;55182;56.864;60.554;2022-07-29T02:17:02;98664.41;;;15.18;87.13
68329;BME280;55182;56.864;60.554;2022-07-29T02:19:28;98654.69;;;15.20;86.73
68329;BME280;55182;56.864;60.554;2022-07-29T02:21:57;98671.41;;;15.26;86.58
68329;BME280;55182;56.864;60.554;2022-07-29T02:24:32;98662.53;;;15.30;85.52
68329;BME280;55182;56.864;60.554;2022-07-29T02:26:59;98657.22;;;15.33;85.61
68329;BME280;55182;56.864;60.554;2022-07-29T02:29:26;98656.31;;;15.39;84.92
68329;BME280;55182;56.864;60.554;2022-07-29T02:31:53;98658.91;;;15.44;84.52
68329;BME280;55182;56.864;60.554;2022-07-29T02:34:20;98654.44;;;15.47;84.15
68329;BME280;55182;56.864;60.554;2022-07-29T02:36:46;98659.69;;;15.52;84.03
68329;BME280;55182;56.864;60.554;2022-07-29T02:39:12;98657.03;;;15.55;83.92
68329;BME280;55182;56.864;60.554;2022-07-29T02:44:28;98655.19;;;15.66;83.30
68329;BME280;55182;56.864;60.554;2022-07-29T02:47:16;98655.97;;;15.71;82.25
68329;BME280;55182;56.864;60.554;2022-07-29T02:49:48;98647.06;;;15.81;81.76
68329;BME280;55182;56.864;60.554;2022-07-29T02:52:17;98648.72;;;15.90;81.44
68329;BME280;55182;56.864;60.554;2022-07-29T02:54:46;98643.31;;;15.99;80.91
68329;BME280;55182;56.864;60.554;2022-07-29T02:57:15;98639.72;;;16.05;80.58
68329;BME280;55182;56.864;60.554;2022-07-29T02:59:44;98629.94;;;16.10;80.73
68329;BME280;55182;56.864;60.554;2022-07-29T03:02:10;98624.59;;;16.14;80.36
68329;BME280;55182;56.864;60.554;2022-07-29T03:04:37;98635.94;;;16.24;80.24
68329;BME280;55182;56.864;60.554;2022-07-29T03:07:04;98636.69;;;16.32;80.08
68329;BME280;55182;56.864;60.554;2022-07-29T03:09:30;98633.09;;;16.39;79.78
68329;BME280;55182;56.864;60.554;2022-07-29T03:11:55;98638.25;;;16.49;80.05
68329;BME280;55182;56.864;60.554;2022-07-29T03:14:22;98630.25;;;16.53;79.36
68329;BME280;55182;56.864;60.554;2022-07-29T03:16:48;98631.88;;;16.60;78.22
68329;BME280;55182;56.864;60.554;2022-07-29T03:19:16;98620.31;;;16.66;77.20
68329;BME280;55182;56.864;60.554;2022-07-29T03:21:41;98627.31;;;16.73;77.20
68329;BME280;55182;56.864;60.554;2022-07-29T03:24:07;98614.88;;;16.78;77.11
68329;BME280;55182;56.864;60.554;2022-07-29T03:26:32;98617.44;;;16.83;76.67
68329;BME280;55182;56.864;60.554;2022-07-29T03:28:58;98620.03;;;16.87;76.08
68329;BME280;55182;56.864;60.554;2022-07-29T03:31:23;98620.88;;;16.91;76.44
68329;BME280;55182;56.864;60.554;2022-07-29T03:33:48;98618.97;;;16.98;76.31
68329;BME280;55182;56.864;60.554;2022-07-29T03:36:14;98620.66;;;17.03;75.97
68329;BME280;55182;56.864;60.554;2022-07-29T03:38:39;98620.59;;;17.08;74.53
68329;BME280;55182;56.864;60.554;2022-07-29T03:41:07;98607.16;;;17.17;73.60
68329;BME280;55182;56.864;60.554;2022-07-29T03:43:34;98620.31;;;17.21;73.51
68329;BME280;55182;56.864;60.554;2022-07-29T03:46:00;98601.69;;;17.26;73.48
68329;BME280;55182;56.864;60.554;2022-07-29T03:48:27;98607.78;;;17.31;72.94
68329;BME280;55182;56.864;60.554;2022-07-29T03:50:55;98605.94;;;17.35;73.08
68329;BME280;55182;56.864;60.554;2022-07-29T03:53:21;98600.59;;;17.38;72.82
68329;BME280;55182;56.864;60.554;2022-07-29T03:55:47;98610.25;;;17.40;72.93
68329;BME280;55182;56.864;60.554;2022-07-29T03:58:13;98611.97;;;17.44;73.03
68329;BME280;55182;56.864;60.554;2022-07-29T04:00:40;98609.19;;;17.51;72.43
68329;BME280;55182;56.864;60.554;2022-07-29T04:03:07;98608.16;;;17.58;71.89
68329;BME280;55182;56.864;60.554;2022-07-29T04:05:33;98600.06;;;17.64;71.78
68329;BME280;55182;56.864;60.554;2022-07-29T04:07:59;98601.72;;;17.71;71.20
68329;BME280;55182;56.864;60.554;2022-07-29T04:10:24;98599.84;;;17.78;70.17
68329;BME280;55182;56.864;60.554;2022-07-29T04:12:49;98605.97;;;17.81;70.57
68329;BME280;55182;56.864;60.554;2022-07-29T04:15:15;98600.59;;;17.84;70.75
68329;BME280;55182;56.864;60.554;2022-07-29T04:17:40;98593.47;;;17.86;71.01
68329;BME280;55182;56.864;60.554;2022-07-29T04:20:06;98584.56;;;17.90;70.36
68329;BME280;55182;56.864;60.554;2022-07-29T04:22:32;98595.03;;;17.96;69.86
68329;BME280;55182;56.864;60.554;2022-07-29T04:24:57;98591.41;;;18.00;69.80
68329;BME280;55182;56.864;60.554;2022-07-29T04:27:22;98592.09;;;18.10;69.69
68329;BME280;55182;56.864;60.554;2022-07-29T04:29:48;98583.91;;;18.21;68.62
68329;BME280;55182;56.864;60.554;2022-07-29T04:32:13;98585.50;;;18.28;67.87
68329;BME280;55182;56.864;60.554;2022-07-29T04:34:39;98587.16;;;18.32;67.14
68329;BME280;55182;56.864;60.554;2022-07-29T04:37:04;98578.22;;;18.36;66.95
68329;BME280;55182;56.864;60.554;2022-07-29T04:39:29;98586.97;;;18.41;67.14
68329;BME280;55182;56.864;60.554;2022-07-29T04:41:55;98574.31;;;18.52;67.03
68329;BME280;55182;56.864;60.554;2022-07-29T04:44:20;98571.41;;;18.63;66.71
68329;BME280;55182;56.864;60.554;2022-07-29T04:46:46;98575.63;;;18.72;65.48
68329;BME280;55182;56.864;60.554;2022-07-29T04:49:11;98577.19;;;18.80;64.83
68329;BME280;55182;56.864;60.554;2022-07-29T04:51:36;98581.38;;;18.91;63.67
68329;BME280;55182;56.864;60.554;2022-07-29T04:54:02;98576.72;;;18.99;61.61
68329;BME280;55182;56.864;60.554;2022-07-29T04:56:27;98581.94;;;19.03;60.18
68329;BME280;55182;56.864;60.554;2022-07-29T04:58:53;98580.16;;;19.04;61.29
68329;BME280;55182;56.864;60.554;2022-07-29T05:01:18;98567.03;;;18.98;62.02
68329;BME280;55182;56.864;60.554;2022-07-29T05:03:44;98582.09;;;18.97;61.58
68329;BME280;55182;56.864;60.554;2022-07-29T05:06:09;98565.28;;;18.97;61.52
68329;BME280;55182;56.864;60.554;2022-07-29T05:08:35;98561.81;;;18.95;60.98
68329;BME280;55182;56.864;60.554;2022-07-29T05:11:00;98561.81;;;18.95;61.40
68329;BME280;55182;56.864;60.554;2022-07-29T05:13:25;98560.03;;;18.94;61.42
68329;BME280;55182;56.864;60.554;2022-07-29T05:15:51;98572.44;;;18.93;62.15
68329;BME280;55182;56.864;60.554;2022-07-29T05:18:16;98553.84;;;18.93;62.48
68329;BME280;55182;56.864;60.554;2022-07-29T05:20:42;98560.06;;;18.92;62.97
68329;BME280;55182;56.864;60.554;2022-07-29T05:23:07;98561.81;;;18.95;63.09
68329;BME280;55182;56.864;60.554;2022-07-29T05:25:33;98561.66;;;18.99;62.85
68329;BME280;55182;56.864;60.554;2022-07-29T05:27:58;98543.00;;;19.02;62.96
68329;BME280;55182;56.864;60.554;2022-07-29T05:30:24;98557.81;;;19.11;62.36
68329;BME280;55182;56.864;60.554;2022-07-29T05:32:49;98550.47;;;19.21;62.65
68329;BME280;55182;56.864;60.554;2022-07-29T05:35:15;98556.69;;;19.20;61.88
68329;BME280;55182;56.864;60.554;2022-07-29T05:37:41;98562.03;;;19.20;61.74
68329;BME280;55182;56.864;60.554;2022-07-29T05:40:06;98561.03;;;19.24;61.54
68329;BME280;55182;56.864;60.554;2022-07-29T05:42:32;98535.03;;;19.35;60.53
68329;BME280;55182;56.864;60.554;2022-07-29T05:44:58;98556.72;;;19.51;60.32
68329;BME280;55182;56.864;60.554;2022-07-29T05:47:23;98550.13;;;19.66;59.22
68329;BME280;55182;56.864;60.554;2022-07-29T05:49:48;98550.69;;;19.77;58.27
68329;BME280;55182;56.864;60.554;2022-07-29T05:52:14;98549.53;;;19.87;57.03
68329;BME280;55182;56.864;60.554;2022-07-29T05:54:39;98544.00;;;19.93;57.54
68329;BME280;55182;56.864;60.554;2022-07-29T05:57:05;98526.19;;;19.97;55.95
68329;BME280;55182;56.864;60.554;2022-07-29T05:59:31;98538.75;;;19.90;56.34
68329;BME280;55182;56.864;60.554;2022-07-29T06:01:57;98535.38;;;19.85;56.89
68329;BME280;55182;56.864;60.554;2022-07-29T06:04:22;98532.03;;;19.78;57.05
68329;BME280;55182;56.864;60.554;2022-07-29T06:06:47;98543.78;;;19.71;56.96
68329;BME280;55182;56.864;60.554;2022-07-29T06:09:13;98546.69;;;19.62;57.27
68329;BME280;55182;56.864;60.554;2022-07-29T06:11:38;98557.38;;;19.61;57.55
68329;BME280;55182;56.864;60.554;2022-07-29T06:14:04;98552.84;;;19.64;58.11
68329;BME280;55182;56.864;60.554;2022-07-29T06:16:29;98556.09;;;19.74;56.88
68329;BME280;55182;56.864;60.554;2022-07-29T06:18:54;98539.88;;;19.83;57.82
68329;BME280;55182;56.864;60.554;2022-07-29T06:21:20;98519.13;;;19.94;56.79
68329;BME280;55182;56.864;60.554;2022-07-29T06:23:45;98531.88;;;20.12;56.22
68329;BME280;55182;56.864;60.554;2022-07-29T06:26:11;98539.31;;;20.31;56.09
68329;BME280;55182;56.864;60.554;2022-07-29T06:28:36;98545.91;;;20.47;55.43
68329;BME280;55182;56.864;60.554;2022-07-29T06:31:02;98538.34;;;20.61;54.85
68329;BME280;55182;56.864;60.554;2022-07-29T06:33:27;98525.63;;;20.70;53.30
68329;BME280;55182;56.864;60.554;2022-07-29T06:35:53;98546.72;;;20.76;54.32
68329;BME280;55182;56.864;60.554;2022-07-29T06:38:18;98532.34;;;20.81;52.51
68329;BME280;55182;56.864;60.554;2022-07-29T06:40:44;98542.97;;;20.83;52.80
68329;BME280;55182;56.864;60.554;2022-07-29T06:43:10;98524.25;;;20.84;52.08
68329;BME280;55182;56.864;60.554;2022-07-29T06:45:35;98539.03;;;20.93;52.91
68329;BME280;55182;56.864;60.554;2022-07-29T06:48:01;98536.19;;;20.99;53.18
68329;BME280;55182;56.864;60.554;2022-07-29T06:50:26;98526.44;;;20.98;52.53
68329;BME280;55182;56.864;60.554;2022-07-29T06:52:51;98531.09;;;20.91;51.89
68329;BME280;55182;56.864;60.554;2022-07-29T06:55:17;98547.16;;;20.90;52.38
68329;BME280;55182;56.864;60.554;2022-07-29T06:57:42;98541.63;;;20.96;52.86
68329;BME280;55182;56.864;60.554;2022-07-29T07:00:08;98544.06;;;21.02;51.02
68329;BME280;55182;56.864;60.554;2022-07-29T07:02:33;98543.63;;;21.14;50.90
68329;BME280;55182;56.864;60.554;2022-07-29T07:04:59;98535.94;;;21.32;50.38
68329;BME280;55182;56.864;60.554;2022-07-29T07:07:24;98555.66;;;21.53;49.88
68329;BME280;55182;56.864;60.554;2022-07-29T07:09:50;98538.78;;;21.76;49.26
68329;BME280;55182;56.864;60.554;2022-07-29T07:12:15;98540.88;;;21.91;49.72
68329;BME280;55182;56.864;60.554;2022-07-29T07:14:41;98538.50;;;22.07;48.77
68329;BME280;55182;56.864;60.554;2022-07-29T07:17:06;98536.59;;;22.10;49.11
68329;BME280;55182;56.864;60.554;2022-07-29T07:19:32;98533.00;;;22.11;48.10
68329;BME280;55182;56.864;60.554;2022-07-29T07:21:57;98528.00;;;22.02;49.21
68329;BME280;55182;56.864;60.554;2022-07-29T07:24:22;98531.47;;;22.04;48.84
68329;BME280;55182;56.864;60.554;2022-07-29T07:26:48;98540.16;;;22.09;49.74
68329;BME280;55182;56.864;60.554;2022-07-29T07:29:13;98547.97;;;22.15;49.29
68329;BME280;55182;56.864;60.554;2022-07-29T07:31:39;98510.47;;;22.18;48.47
68329;BME280;55182;56.864;60.554;2022-07-29T07:34:04;98542.63;;;22.15;49.64
68329;BME280;55182;56.864;60.554;2022-07-29T07:36:30;98542.63;;;22.15;47.50
68329;BME280;55182;56.864;60.554;2022-07-29T07:38:55;98535.13;;;22.25;48.06
68329;BME280;55182;56.864;60.554;2022-07-29T07:41:21;98529.06;;;22.43;46.69
68329;BME280;55182;56.864;60.554;2022-07-29T07:43:46;98534.75;;;22.56;46.99
68329;BME280;55182;56.864;60.554;2022-07-29T07:46:11;98528.47;;;22.57;47.25
68329;BME280;55182;56.864;60.554;2022-07-29T07:48:37;98540.34;;;22.50;45.61
68329;BME280;55182;56.864;60.554;2022-07-29T07:51:02;98539.84;;;22.18;46.05
68329;BME280;55182;56.864;60.554;2022-07-29T07:53:28;98534.75;;;22.12;46.48
68329;BME280;55182;56.864;60.554;2022-07-29T07:55:53;98538.91;;;22.19;47.38
68329;BME280;55182;56.864;60.554;2022-07-29T07:58:19;98532.16;;;22.33;46.04
68329;BME280;55182;56.864;60.554;2022-07-29T08:00:44;98539.84;;;22.40;46.28
68329;BME280;55182;56.864;60.554;2022-07-29T08:03:10;98533.47;;;22.44;45.51
68329;BME280;55182;56.864;60.554;2022-07-29T08:05:35;98516.31;;;22.50;43.59
68329;BME280;55182;56.864;60.554;2022-07-29T08:08:01;98516.63;;;22.42;43.10
68329;BME280;55182;56.864;60.554;2022-07-29T08:10:26;98522.25;;;22.35;44.64
68329;BME280;55182;56.864;60.554;2022-07-29T08:12:51;98525.31;;;22.26;44.23
68329;BME280;55182;56.864;60.554;2022-07-29T08:15:17;98530.28;;;22.35;44.01
68329;BME280;55182;56.864;60.554;2022-07-29T08:17:42;98524.47;;;22.47;44.60
68329;BME280;55182;56.864;60.554;2022-07-29T08:20:08;98528.03;;;22.68;45.07
68329;BME280;55182;56.864;60.554;2022-07-29T08:22:33;98522.38;;;22.97;43.83
68329;BME280;55182;56.864;60.554;2022-07-29T08:24:59;98522.03;;;23.25;43.47
68329;BME280;55182;56.864;60.554;2022-07-29T08:27:24;98528.41;;;23.43;43.66
68329;BME280;55182;56.864;60.554;2022-07-29T08:29:49;98541.97;;;23.39;43.74
68329;BME280;55182;56.864;60.554;2022-07-29T08:32:15;98511.88;;;22.93;44.34
68329;BME280;55182;56.864;60.554;2022-07-29T08:34:40;98528.53;;;22.78;45.27
68329;BME280;55182;56.864;60.554;2022-07-29T08:37:06;98519.38;;;22.41;45.33
68329;BME280;55182;56.864;60.554;2022-07-29T08:39:31;98524.25;;;22.06;44.38
68329;BME280;55182;56.864;60.554;2022-07-29T08:41:57;98527.13;;;21.78;45.01
68329;BME280;55182;56.864;60.554;2022-07-29T08:44:23;98519.94;;;21.57;46.50
68329;BME280;55182;56.864;60.554;2022-07-29T08:46:48;98529.59;;;21.59;46.57
68329;BME280;55182;56.864;60.554;2022-07-29T08:49:14;98520.56;;;21.63;46.24
68329;BME280;55182;56.864;60.554;2022-07-29T08:51:40;98532.75;;;21.70;46.76
68329;BME280;55182;56.864;60.554;2022-07-29T08:54:05;98531.94;;;21.92;45.84
68329;BME280;55182;56.864;60.554;2022-07-29T08:56:31;98529.22;;;22.17;45.67
68329;BME280;55182;56.864;60.554;2022-07-29T08:58:58;98538.06;;;22.41;44.91
68329;BME280;55182;56.864;60.554;2022-07-29T09:01:25;98534.50;;;22.62;44.37
68329;BME280;55182;56.864;60.554;2022-07-29T09:03:51;98519.09;;;22.91;43.68
68329;BME280;55182;56.864;60.554;2022-07-29T09:06:19;98537.81;;;23.11;42.14
68329;BME280;55182;56.864;60.554;2022-07-29T09:08:46;98527.59;;;23.21;42.55
68329;BME280;55182;56.864;60.554;2022-07-29T09:11:12;98526.50;;;23.45;42.46
68329;BME280;55182;56.864;60.554;2022-07-29T09:13:38;98531.38;;;23.76;41.65
68329;BME280;55182;56.864;60.554;2022-07-29T09:16:03;98530.25;;;24.01;41.69
68329;BME280;55182;56.864;60.554;2022-07-29T09:18:36;98514.47;;;24.14;41.19
68329;BME280;55182;56.864;60.554;2022-07-29T09:21:02;98523.59;;;24.28;41.54
68329;BME280;55182;56.864;60.554;2022-07-29T09:23:28;98521.84;;;24.09;41.89
68329;BME280;55182;56.864;60.554;2022-07-29T09:25:53;98496.84;;;23.70;42.58
68329;BME280;55182;56.864;60.554;2022-07-29T09:28:19;98535.06;;;23.53;43.34
68329;BME280;55182;56.864;60.554;2022-07-29T09:30:57;98525.25;;;23.13;44.04
68329;BME280;55182;56.864;60.554;2022-07-29T09:33:23;98537.59;;;22.95;44.92
68329;BME280;55182;56.864;60.554;2022-07-29T09:36:02;98542.91;;;23.17;44.28
68329;BME280;55182;56.864;60.554;2022-07-29T09:38:28;98529.28;;;23.44;43.21
68329;BME280;55182;56.864;60.554;2022-07-29T09:40:57;98519.59;;;23.80;42.79
68329;BME280;55182;56.864;60.554;2022-07-29T09:43:22;98541.69;;;24.23;41.94
68329;BME280;55182;56.864;60.554;2022-07-29T09:45:48;98543.50;;;24.78;40.99
68329;BME280;55182;56.864;60.554;2022-07-29T09:48:14;98545.53;;;25.26;39.99
68329;BME280;55182;56.864;60.554;2022-07-29T09:50:40;98535.03;;;25.89;37.65
68329;BME280;55182;56.864;60.554;2022-07-29T09:53:06;98530.56;;;26.37;37.10
68329;BME280;55182;56.864;60.554;2022-07-29T09:55:31;98548.22;;;25.94;37.62
68329;BME280;55182;56.864;60.554;2022-07-29T10:00:44;98546.31;;;24.39;40.60
68329;BME280;55182;56.864;60.554;2022-07-29T10:03:09;98560.66;;;24.00;41.83
68329;BME280;55182;56.864;60.554;2022-07-29T10:05:35;98549.88;;;23.62;42.44
68329;BME280;55182;56.864;60.554;2022-07-29T10:08:00;98552.69;;;23.39;42.73
68329;BME280;55182;56.864;60.554;2022-07-29T10:12:55;98557.94;;;23.20;43.59
68329;BME280;55182;56.864;60.554;2022-07-29T10:15:25;98549.31;;;23.13;43.57
68329;BME280;55182;56.864;60.554;2022-07-29T10:17:51;98548.00;;;23.03;43.59
68329;BME280;55182;56.864;60.554;2022-07-29T10:20:16;98551.13;;;22.92;42.75
68329;BME280;55182;56.864;60.554;2022-07-29T10:22:42;98547.50;;;22.93;42.68
68329;BME280;55182;56.864;60.554;2022-07-29T10:25:08;98549.06;;;22.99;42.42
68329;BME280;55182;56.864;60.554;2022-07-29T10:27:34;98548.91;;;23.02;42.65
68329;BME280;55182;56.864;60.554;2022-07-29T10:30:00;98550.13;;;23.15;43.29
68329;BME280;55182;56.864;60.554;2022-07-29T10:32:34;98539.31;;;23.39;43.21
68329;BME280;55182;56.864;60.554;2022-07-29T10:35:08;98521.28;;;23.42;43.61
68329;BME280;55182;56.864;60.554;2022-07-29T10:42:37;98533.19;;;22.72;44.66
68329;BME280;55182;56.864;60.554;2022-07-29T10:45:05;98528.63;;;22.54;44.83
68329;BME280;55182;56.864;60.554;2022-07-29T10:47:30;98519.59;;;22.57;45.11
68329;BME280;55182;56.864;60.554;2022-07-29T10:49:59;98529.31;;;22.59;45.26
68329;BME280;55182;56.864;60.554;2022-07-29T10:52:45;98526.31;;;22.67;45.92
68329;BME280;55182;56.864;60.554;2022-07-29T10:55:29;98540.34;;;22.72;45.80
68329;BME280;55182;56.864;60.554;2022-07-29T11:00:36;98524.44;;;22.91;44.60
68329;BME280;55182;56.864;60.554;2022-07-29T11:03:01;98526.91;;;22.95;44.60
68329;BME280;55182;56.864;60.554;2022-07-29T11:05:27;98535.13;;;22.91;44.86
68329;BME280;55182;56.864;60.554;2022-07-29T11:10:36;98529.41;;;22.56;46.31
68329;BME280;55182;56.864;60.554;2022-07-29T11:13:01;98530.84;;;22.43;47.11
68329;BME280;55182;56.864;60.554;2022-07-29T11:15:27;98522.16;;;22.38;46.56
68329;BME280;55182;56.864;60.554;2022-07-29T11:22:55;98518.13;;;22.49;45.13
68329;BME280;55182;56.864;60.554;2022-07-29T11:25:21;98511.53;;;22.58;45.17
68329;BME280;55182;56.864;60.554;2022-07-29T11:27:46;98503.41;;;22.82;45.09
68329;BME280;55182;56.864;60.554;2022-07-29T11:30:12;98518.16;;;23.12;44.80
68329;BME280;55182;56.864;60.554;2022-07-29T11:32:38;98515.63;;;23.50;44.30
68329;BME280;55182;56.864;60.554;2022-07-29T11:38:24;98515.31;;;23.76;42.59
68329;BME280;55182;56.864;60.554;2022-07-29T11:46:12;98512.00;;;24.28;41.89
68329;BME280;55182;56.864;60.554;2022-07-29T11:48:41;98507.97;;;24.92;40.29
68329;BME280;55182;56.864;60.554;2022-07-29T11:51:09;98512.38;;;24.93;40.42
68329;BME280;55182;56.864;60.554;2022-07-29T11:53:34;98517.97;;;25.40;39.65
68329;BME280;55182;56.864;60.554;2022-07-29T11:56:00;98506.06;;;26.44;37.30
68329;BME280;55182;56.864;60.554;2022-07-29T11:58:25;98502.75;;;27.44;34.95
68329;BME280;55182;56.864;60.554;2022-07-29T12:00:53;98503.31;;;28.49;33.68
68329;BME280;55182;56.864;60.554;2022-07-29T12:03:26;98503.22;;;29.30;31.39
68329;BME280;55182;56.864;60.554;2022-07-29T12:05:51;98487.03;;;28.91;32.06
68329;BME280;55182;56.864;60.554;2022-07-29T12:08:18;98495.78;;;27.99;33.12
68329;BME280;55182;56.864;60.554;2022-07-29T12:10:44;98498.78;;;27.06;34.87
68329;BME280;55182;56.864;60.554;2022-07-29T12:13:09;98492.00;;;26.23;36.68
68329;BME280;55182;56.864;60.554;2022-07-29T12:15:35;98495.97;;;25.33;38.61
68329;BME280;55182;56.864;60.554;2022-07-29T12:18:21;98492.81;;;25.43;39.22
68329;BME280;55182;56.864;60.554;2022-07-29T12:20:47;98499.75;;;26.45;37.14
68329;BME280;55182;56.864;60.554;2022-07-29T12:23:12;98497.94;;;27.50;35.07
68329;BME280;55182;56.864;60.554;2022-07-29T12:25:39;98502.72;;;28.30;33.61
68329;BME280;55182;56.864;60.554;2022-07-29T12:28:05;98498.53;;;29.07;32.01
68329;BME280;55182;56.864;60.554;2022-07-29T12:30:44;98490.84;;;29.53;31.31
68329;BME280;55182;56.864;60.554;2022-07-29T12:33:11;98497.06;;;29.92;30.77
68329;BME280;55182;56.864;60.554;2022-07-29T12:35:36;98514.56;;;30.25;29.35
68329;BME280;55182;56.864;60.554;2022-07-29T12:38:02;98490.25;;;30.49;28.37
68329;BME280;55182;56.864;60.554;2022-07-29T12:40:27;98488.44;;;30.73;28.77
68329;BME280;55182;56.864;60.554;2022-07-29T12:43:15;98489.72;;;30.80;27.50
68329;BME280;55182;56.864;60.554;2022-07-29T12:45:40;98487.66;;;30.47;27.60
68329;BME280;55182;56.864;60.554;2022-07-29T12:48:06;98478.16;;;30.42;28.42
68329;BME280;55182;56.864;60.554;2022-07-29T12:50:32;98493.97;;;30.72;28.05
68329;BME280;55182;56.864;60.554;2022-07-29T12:53:10;98493.00;;;31.08;27.07
68329;BME280;55182;56.864;60.554;2022-07-29T12:55:45;98486.28;;;30.66;28.79
68329;BME280;55182;56.864;60.554;2022-07-29T12:58:11;98478.63;;;30.59;28.91
68329;BME280;55182;56.864;60.554;2022-07-29T13:00:36;98483.09;;;30.96;27.78
68329;BME280;55182;56.864;60.554;2022-07-29T13:03:02;98487.34;;;31.46;27.17
68329;BME280;55182;56.864;60.554;2022-07-29T13:05:43;98466.53;;;31.47;27.75
68329;BME280;55182;56.864;60.554;2022-07-29T13:08:12;98500.47;;;31.86;27.65
68329;BME280;55182;56.864;60.554;2022-07-29T13:10:38;98492.06;;;32.23;27.11
68329;BME280;55182;56.864;60.554;2022-07-29T13:13:04;98488.00;;;31.72;26.60
68329;BME280;55182;56.864;60.554;2022-07-29T13:15:30;98482.09;;;31.21;27.87
68329;BME280;55182;56.864;60.554;2022-07-29T13:17:56;98489.59;;;30.08;28.86
68329;BME280;55182;56.864;60.554;2022-07-29T13:20:25;98490.59;;;28.91;30.94
68329;BME280;55182;56.864;60.554;2022-07-29T13:22:51;98494.91;;;27.84;32.51
68329;BME280;55182;56.864;60.554;2022-07-29T13:25:29;98493.88;;;27.14;33.93
68329;BME280;55182;56.864;60.554;2022-07-29T13:27:55;98497.41;;;27.73;33.39
68329;BME280;55182;56.864;60.554;2022-07-29T13:30:21;98496.81;;;28.52;32.11
68329;BME280;55182;56.864;60.554;2022-07-29T13:32:47;98496.97;;;29.30;30.25